Time;durP1;ratioP1;P1;durP2;ratioP2;P2;SDS_P1;SDS_P2;PMS_P1;PMS_P2;Temp;Humidity;BMP_temperature;BMP_pressure;BME280_temperature;BME280_humidity;BME280_pressure;Samples;Min_cycle;Max_cycle;Signal;HPM_P1;HPM_P2
2022/08/21 00:02:02;;;;;;;;;;;25.90;80.00;;;;;;5133639;27;19930;-60
2022/08/21 00:04:29;;;;;;;;;;;25.80;80.00;;;;;;5134377;27;20416;-61
2022/08/21 00:06:55;;;;;;;;;;;26.00;79.10;;;;;;5132005;27;19923;-60
2022/08/21 00:09:20;;;;;;;;;;;25.80;80.00;;;;;;5131162;27;19930;-60
2022/08/21 00:11:46;;;;;;;;;;;25.70;79.70;;;;;;5131572;27;19938;-62
2022/08/21 00:14:12;;;;;;;;;;;25.90;80.10;;;;;;5130472;27;20308;-60
2022/08/21 00:16:38;;;;;;;;;;;25.90;80.00;;;;;;5126862;27;19923;-60
2022/08/21 00:19:04;;;;;;;;;;;25.70;80.00;;;;;;5122673;27;19923;-60
2022/08/21 00:21:29;;;;;;;;;;;26.10;80.00;;;;;;5131003;27;20281;-60
2022/08/21 00:23:55;;;;;;;;;;;26.00;80.10;;;;;;5133302;27;19976;-60
2022/08/21 00:26:20;;;;;;;;;;;25.80;79.80;;;;;;5126698;27;19923;-60
2022/08/21 00:28:48;;;;;;;;;;;26.00;79.80;;;;;;5117255;27;19920;-61
2022/08/21 00:31:14;;;;;;;;;;;25.70;79.70;;;;;;5135598;27;20380;-60
2022/08/21 00:33:40;;;;;;;;;;;25.80;80.00;;;;;;5132265;27;19976;-60
2022/08/21 00:36:06;;;;;;;;;;;26.10;80.00;;;;;;5132790;27;20380;-60
2022/08/21 00:38:32;;;;;;;;;;;25.80;79.50;;;;;;5115534;27;19932;-61
2022/08/21 00:40:58;;;;;;;;;;;25.70;79.80;;;;;;5126243;27;20375;-60
2022/08/21 00:43:27;;;;;;;;;;;25.90;80.20;;;;;;5131146;27;19976;-66
2022/08/21 00:45:53;;;;;;;;;;;26.00;80.30;;;;;;5133404;27;19927;-65
2022/08/21 00:48:18;;;;;;;;;;;25.60;79.80;;;;;;5147117;27;19928;-65
2022/08/21 00:50:46;;;;;;;;;;;26.10;80.00;;;;;;5125668;27;19934;-60
2022/08/21 00:53:11;;;;;;;;;;;25.80;80.20;;;;;;5133081;27;20092;-60
2022/08/21 00:55:37;;;;;;;;;;;25.80;79.90;;;;;;5099346;27;19924;-60
2022/08/21 00:58:03;;;;;;;;;;;25.60;79.90;;;;;;5131955;27;20384;-60
2022/08/21 01:00:30;;;;;;;;;;;25.90;80.30;;;;;;5130481;27;19923;-62
2022/08/21 01:02:56;;;;;;;;;;;25.70;80.10;;;;;;5133109;27;19924;-60
2022/08/21 01:05:22;;;;;;;;;;;25.70;80.10;;;;;;5117202;27;19928;-60
2022/08/21 01:07:48;;;;;;;;;;;25.80;80.00;;;;;;5121603;27;19931;-59
2022/08/21 01:10:14;;;;;;;;;;;25.90;80.00;;;;;;5117969;27;19931;-60
2022/08/21 01:12:40;;;;;;;;;;;25.70;80.10;;;;;;5114384;27;19971;-60
2022/08/21 01:15:07;;;;;;;;;;;25.70;80.20;;;;;;5118621;27;19930;-60
2022/08/21 01:17:32;;;;;;;;;;;25.60;80.10;;;;;;5101276;27;20013;-61
2022/08/21 01:19:58;;;;;;;;;;;25.80;80.10;;;;;;5102826;27;20034;-60
2022/08/21 01:22:24;;;;;;;;;;;25.90;80.40;;;;;;5126628;27;19934;-60
2022/08/21 01:24:49;;;;;;;;;;;25.80;80.10;;;;;;5122423;27;19923;-60
2022/08/21 01:27:15;;;;;;;;;;;25.70;80.10;;;;;;5128982;27;19984;-60
2022/08/21 01:29:43;;;;;;;;;;;25.70;80.20;;;;;;5136657;27;19931;-60
2022/08/21 01:32:10;;;;;;;;;;;25.80;80.40;;;;;;5115502;27;19930;-60
2022/08/21 01:34:36;;;;;;;;;;;25.90;80.50;;;;;;5108980;27;19955;-61
2022/08/21 01:37:02;;;;;;;;;;;25.70;79.80;;;;;;5113729;27;19963;-60
2022/08/21 01:39:28;;;;;;;;;;;25.60;80.10;;;;;;5127075;27;19977;-60
2022/08/21 01:41:54;;;;;;;;;;;25.50;80.10;;;;;;5122580;27;20409;-62
2022/08/21 01:44:22;;;;;;;;;;;25.80;80.10;;;;;;5123483;27;20006;-60
2022/08/21 01:46:48;;;;;;;;;;;25.80;79.00;;;;;;5148565;27;20377;-59
2022/08/21 01:49:15;;;;;;;;;;;25.50;79.80;;;;;;5125706;27;19968;-60
2022/08/21 01:51:41;;;;;;;;;;;25.70;80.40;;;;;;5109961;27;19929;-60
2022/08/21 01:54:06;;;;;;;;;;;25.70;79.90;;;;;;5126063;27;19924;-61
2022/08/21 01:56:42;;;;;;;;;;;25.70;80.00;;;;;;5098685;27;19927;-60
2022/08/21 01:59:08;;;;;;;;;;;25.60;78.90;;;;;;5119805;27;19931;-60
2022/08/21 02:01:33;;;;;;;;;;;25.60;79.80;;;;;;5116885;27;19924;-61
2022/08/21 02:03:59;;;;;;;;;;;25.40;79.60;;;;;;5128264;27;20468;-60
2022/08/21 02:06:25;;;;;;;;;;;25.50;79.80;;;;;;5117653;27;19976;-60
2022/08/21 02:08:51;;;;;;;;;;;25.50;80.00;;;;;;5133595;27;19928;-60
2022/08/21 02:11:16;;;;;;;;;;;25.70;80.10;;;;;;5137482;27;21652;-59
2022/08/21 02:13:42;;;;;;;;;;;25.50;80.10;;;;;;5135029;27;19927;-62
2022/08/21 02:16:07;;;;;;;;;;;25.60;80.20;;;;;;5128074;27;19930;-60
2022/08/21 02:18:33;;;;;;;;;;;25.60;80.20;;;;;;5131814;27;19946;-62
2022/08/21 02:20:59;;;;;;;;;;;25.80;80.70;;;;;;5118856;27;20372;-60
2022/08/21 02:23:25;;;;;;;;;;;25.70;80.30;;;;;;5125562;27;19951;-60
2022/08/21 02:25:50;;;;;;;;;;;25.30;80.00;;;;;;5132199;27;19923;-60
2022/08/21 02:28:16;;;;;;;;;;;25.50;80.20;;;;;;5128651;27;19923;-60
2022/08/21 02:30:43;;;;;;;;;;;25.60;80.10;;;;;;5136896;27;19927;-60
2022/08/21 02:33:09;;;;;;;;;;;25.60;80.50;;;;;;5110454;27;19923;-60
2022/08/21 02:35:36;;;;;;;;;;;25.70;80.30;;;;;;5131483;27;19928;-60
2022/08/21 02:38:03;;;;;;;;;;;25.40;80.30;;;;;;5142574;27;20338;-59
2022/08/21 02:40:32;;;;;;;;;;;25.70;80.50;;;;;;5133567;27;20289;-60
2022/08/21 02:42:58;;;;;;;;;;;25.50;80.30;;;;;;5120649;27;19967;-60
2022/08/21 02:45:24;;;;;;;;;;;25.60;80.10;;;;;;5123475;27;19970;-60
2022/08/21 02:47:50;;;;;;;;;;;25.70;80.40;;;;;;5129548;27;19923;-60
2022/08/21 02:50:17;;;;;;;;;;;25.30;80.20;;;;;;5127610;27;19942;-60
2022/08/21 02:52:43;;;;;;;;;;;25.50;80.30;;;;;;5120836;27;20389;-60
2022/08/21 02:55:08;;;;;;;;;;;25.60;80.10;;;;;;5130554;27;19926;-61
2022/08/21 02:57:34;;;;;;;;;;;25.40;80.00;;;;;;5126757;27;19931;-60
2022/08/21 02:59:59;;;;;;;;;;;25.30;79.90;;;;;;5116873;27;19924;-60
2022/08/21 03:02:25;;;;;;;;;;;25.50;80.20;;;;;;5127585;27;20044;-60
2022/08/21 03:04:51;;;;;;;;;;;25.60;80.10;;;;;;5134776;27;20392;-60
2022/08/21 03:07:16;;;;;;;;;;;25.40;80.70;;;;;;5117735;27;19924;-61
2022/08/21 03:09:42;;;;;;;;;;;25.40;80.00;;;;;;5116393;27;19978;-60
2022/08/21 03:12:07;;;;;;;;;;;25.40;80.20;;;;;;5125540;27;20342;-60
2022/08/21 03:14:33;;;;;;;;;;;25.30;80.10;;;;;;5136047;27;20010;-60
2022/08/21 03:16:59;;;;;;;;;;;25.70;80.30;;;;;;5134400;27;19932;-60
2022/08/21 03:19:24;;;;;;;;;;;25.40;80.20;;;;;;5119161;27;19927;-61
2022/08/21 03:21:50;;;;;;;;;;;25.40;80.00;;;;;;5135016;27;19928;-60
2022/08/21 03:24:15;;;;;;;;;;;25.20;80.00;;;;;;5116836;27;19931;-61
2022/08/21 03:26:41;;;;;;;;;;;25.40;80.10;;;;;;5117144;27;20439;-60
2022/08/21 03:29:07;;;;;;;;;;;25.50;80.00;;;;;;5126616;27;20022;-61
2022/08/21 03:31:32;;;;;;;;;;;25.40;80.10;;;;;;5123156;27;19959;-60
2022/08/21 03:33:58;;;;;;;;;;;25.40;80.10;;;;;;5131883;27;19924;-61
2022/08/21 03:36:24;;;;;;;;;;;25.40;80.10;;;;;;5133939;27;19931;-60
2022/08/21 03:38:49;;;;;;;;;;;25.70;80.30;;;;;;5119477;27;19968;-61
2022/08/21 03:41:15;;;;;;;;;;;25.40;80.00;;;;;;5118984;27;20412;-60
2022/08/21 03:43:41;;;;;;;;;;;25.40;80.10;;;;;;5115404;27;20390;-60
2022/08/21 03:46:06;;;;;;;;;;;25.50;80.10;;;;;;5145560;27;20395;-60
2022/08/21 03:48:32;;;;;;;;;;;25.40;80.10;;;;;;5133662;27;20086;-60
2022/08/21 03:50:58;;;;;;;;;;;25.60;80.10;;;;;;5127907;27;19923;-60
2022/08/21 03:53:24;;;;;;;;;;;25.40;80.00;;;;;;5131523;27;19924;-60
2022/08/21 03:55:50;;;;;;;;;;;25.30;80.00;;;;;;5135028;27;19976;-60
2022/08/21 03:58:17;;;;;;;;;;;25.10;80.00;;;;;;5126077;27;19923;-60
2022/08/21 04:00:43;;;;;;;;;;;25.40;80.20;;;;;;5126580;27;19924;-60
2022/08/21 04:03:09;;;;;;;;;;;25.30;80.10;;;;;;5104738;27;19928;-61
2022/08/21 04:05:34;;;;;;;;;;;25.40;79.60;;;;;;5133659;27;19976;-60
2022/08/21 04:08:01;;;;;;;;;;;25.50;79.90;;;;;;5133786;27;20404;-60
2022/08/21 04:10:27;;;;;;;;;;;25.10;79.90;;;;;;5129618;27;19931;-60
2022/08/21 04:12:53;;;;;;;;;;;25.20;79.90;;;;;;5109288;28;20396;-60
2022/08/21 04:15:19;;;;;;;;;;;25.40;79.80;;;;;;5135678;27;19970;-62
2022/08/21 04:17:45;;;;;;;;;;;25.40;80.00;;;;;;5154281;27;20345;-60
2022/08/21 04:20:10;;;;;;;;;;;25.20;79.60;;;;;;5126642;28;19932;-60
2022/08/21 04:22:36;;;;;;;;;;;25.30;79.90;;;;;;5119234;27;20372;-60
2022/08/21 04:25:02;;;;;;;;;;;24.90;79.40;;;;;;5113189;28;20296;-60
2022/08/21 04:27:27;;;;;;;;;;;25.40;79.80;;;;;;5130066;27;19931;-60
2022/08/21 04:29:53;;;;;;;;;;;25.40;79.80;;;;;;5115395;27;19927;-62
2022/08/21 04:32:25;;;;;;;;;;;25.30;79.90;;;;;;5103591;28;19924;-60
2022/08/21 04:34:57;;;;;;;;;;;25.40;78.80;;;;;;5123960;27;19920;-60
2022/08/21 04:37:22;;;;;;;;;;;25.20;80.00;;;;;;5118455;27;19931;-61
2022/08/21 04:39:48;;;;;;;;;;;25.20;79.80;;;;;;5119784;27;20011;-61
2022/08/21 04:42:14;;;;;;;;;;;25.10;79.80;;;;;;5125120;27;20389;-61
2022/08/21 04:44:40;;;;;;;;;;;25.20;79.80;;;;;;5119102;27;19924;-60
2022/08/21 04:47:06;;;;;;;;;;;25.20;79.80;;;;;;5128219;27;19977;-62
2022/08/21 04:49:32;;;;;;;;;;;25.40;79.40;;;;;;5125936;27;19931;-63
2022/08/21 04:51:58;;;;;;;;;;;25.40;80.00;;;;;;5123002;27;20384;-60
2022/08/21 04:54:24;;;;;;;;;;;25.50;79.60;;;;;;5129316;27;19977;-60
2022/08/21 04:56:51;;;;;;;;;;;25.40;79.70;;;;;;5128279;27;19924;-60
2022/08/21 04:59:23;;;;;;;;;;;25.40;79.80;;;;;;5129717;27;20295;-60
2022/08/21 05:01:49;;;;;;;;;;;25.40;78.30;;;;;;5103556;27;19931;-60
2022/08/21 05:04:16;;;;;;;;;;;25.50;79.30;;;;;;5116584;27;19923;-60
2022/08/21 05:06:43;;;;;;;;;;;25.60;79.60;;;;;;5120943;27;19927;-61
2022/08/21 05:09:09;;;;;;;;;;;25.80;79.50;;;;;;5125971;27;19930;-60
2022/08/21 05:11:34;;;;;;;;;;;25.50;79.10;;;;;;5099928;27;19924;-60
2022/08/21 05:14:00;;;;;;;;;;;25.60;78.80;;;;;;5116442;27;19983;-60
2022/08/21 05:16:26;;;;;;;;;;;26.00;78.90;;;;;;5136622;27;19920;-60
2022/08/21 05:18:52;;;;;;;;;;;25.90;78.40;;;;;;5135367;27;19927;-60
2022/08/21 05:21:18;;;;;;;;;;;25.80;78.10;;;;;;5134426;27;19978;-61
2022/08/21 05:23:44;;;;;;;;;;;26.00;78.40;;;;;;5123911;27;20027;-60
2022/08/21 05:26:09;;;;;;;;;;;25.80;78.20;;;;;;5136514;27;19924;-60
2022/08/21 05:28:35;;;;;;;;;;;26.10;78.30;;;;;;5113622;27;19919;-60
2022/08/21 05:31:01;;;;;;;;;;;26.00;78.20;;;;;;5136658;27;19968;-60
2022/08/21 05:33:26;;;;;;;;;;;26.20;78.20;;;;;;5121467;27;19923;-60
2022/08/21 05:35:52;;;;;;;;;;;26.10;78.10;;;;;;5117115;28;20381;-61
2022/08/21 05:38:18;;;;;;;;;;;26.40;78.30;;;;;;5117102;27;20441;-61
2022/08/21 05:40:44;;;;;;;;;;;26.30;77.90;;;;;;5138672;27;19928;-60
2022/08/21 05:43:10;;;;;;;;;;;26.40;78.00;;;;;;5124689;27;19947;-65
2022/08/21 05:45:35;;;;;;;;;;;26.80;77.80;;;;;;5117523;27;19924;-60
2022/08/21 05:48:27;;;;;;;;;;;26.20;77.40;;;;;;5132143;27;20385;-60
2022/08/21 05:50:54;;;;;;;;;;;26.90;76.40;;;;;;5118645;27;19977;-60
2022/08/21 05:53:20;;;;;;;;;;;27.10;77.70;;;;;;5122934;27;19924;-60
2022/08/21 05:55:45;;;;;;;;;;;27.00;77.60;;;;;;5132001;27;19924;-60
2022/08/21 05:58:11;;;;;;;;;;;26.90;77.00;;;;;;5135791;27;19928;-60
2022/08/21 06:00:37;;;;;;;;;;;26.80;77.00;;;;;;5134339;27;19923;-60
2022/08/21 06:03:04;;;;;;;;;;;26.90;76.90;;;;;;5135576;27;19924;-60
2022/08/21 06:05:30;;;;;;;;;;;27.10;76.70;;;;;;5118460;27;20014;-60
2022/08/21 06:07:56;;;;;;;;;;;27.10;76.50;;;;;;5130636;27;19927;-60
2022/08/21 06:10:21;;;;;;;;;;;27.60;76.70;;;;;;5133354;27;19934;-60
2022/08/21 06:12:47;;;;;;;;;;;27.10;76.10;;;;;;5124276;27;19924;-62
2022/08/21 06:15:13;;;;;;;;;;;27.30;75.80;;;;;;5109296;27;20018;-60
2022/08/21 06:17:38;;;;;;;;;;;27.30;76.20;;;;;;5145605;27;19963;-60
2022/08/21 06:20:04;;;;;;;;;;;27.30;75.70;;;;;;5123833;27;19923;-60
2022/08/21 06:22:30;;;;;;;;;;;27.70;75.70;;;;;;5112675;27;19923;-60
2022/08/21 06:24:56;;;;;;;;;;;27.80;75.30;;;;;;5134331;27;19976;-60
2022/08/21 06:27:21;;;;;;;;;;;27.80;75.80;;;;;;5119973;27;19932;-60
2022/08/21 06:29:47;;;;;;;;;;;28.10;75.40;;;;;;5128539;27;19923;-60
2022/08/21 06:32:13;;;;;;;;;;;27.80;75.50;;;;;;5124153;27;20338;-61
2022/08/21 06:34:39;;;;;;;;;;;28.00;75.10;;;;;;5126736;27;20014;-60
2022/08/21 06:37:04;;;;;;;;;;;27.70;75.30;;;;;;5120108;27;19924;-60
2022/08/21 06:39:30;;;;;;;;;;;28.30;75.10;;;;;;5136463;27;20018;-60
2022/08/21 06:41:56;;;;;;;;;;;28.40;75.40;;;;;;5147468;27;19971;-60
2022/08/21 06:44:22;;;;;;;;;;;28.20;74.90;;;;;;5131532;27;19966;-60
2022/08/21 06:46:48;;;;;;;;;;;28.20;74.70;;;;;;5125262;27;19923;-61
2022/08/21 06:49:13;;;;;;;;;;;28.30;74.80;;;;;;5115786;27;19931;-61
2022/08/21 06:51:39;;;;;;;;;;;28.50;74.70;;;;;;5117525;27;20362;-60
2022/08/21 06:54:05;;;;;;;;;;;28.50;74.70;;;;;;5124155;27;19923;-60
2022/08/21 06:56:31;;;;;;;;;;;28.40;74.40;;;;;;5134288;27;19924;-60
2022/08/21 06:58:56;;;;;;;;;;;28.40;74.30;;;;;;5122297;27;19980;-60
2022/08/21 07:01:23;;;;;;;;;;;28.60;74.20;;;;;;5126927;27;19967;-60
2022/08/21 07:03:49;;;;;;;;;;;28.60;74.50;;;;;;5119693;27;19930;-60
2022/08/21 07:06:15;;;;;;;;;;;28.50;73.10;;;;;;5116732;27;19975;-60
2022/08/21 07:08:41;;;;;;;;;;;28.70;74.20;;;;;;5113757;27;19979;-60
2022/08/21 07:11:09;;;;;;;;;;;28.70;74.00;;;;;;5127134;27;19924;-66
2022/08/21 07:13:35;;;;;;;;;;;28.70;74.30;;;;;;5120224;27;19924;-60
2022/08/21 07:16:01;;;;;;;;;;;28.70;74.00;;;;;;5128834;27;19931;-65
2022/08/21 07:18:26;;;;;;;;;;;28.90;73.80;;;;;;5128501;27;19929;-66
2022/08/21 07:20:52;;;;;;;;;;;28.70;73.70;;;;;;5123493;27;20296;-60
2022/08/21 07:23:22;;;;;;;;;;;28.60;73.70;;;;;;5124835;27;19931;-60
2022/08/21 07:25:48;;;;;;;;;;;29.00;74.10;;;;;;5097545;27;19924;-60
2022/08/21 07:28:14;;;;;;;;;;;29.10;73.90;;;;;;5126394;27;20497;-67
2022/08/21 07:30:39;;;;;;;;;;;28.70;73.20;;;;;;5120982;27;20317;-64
2022/08/21 07:33:05;;;;;;;;;;;29.10;73.70;;;;;;5115135;27;19924;-67
2022/08/21 07:35:32;;;;;;;;;;;28.90;73.40;;;;;;5114542;27;19924;-62
2022/08/21 07:37:58;;;;;;;;;;;29.00;73.80;;;;;;5119648;27;20371;-66
2022/08/21 07:40:24;;;;;;;;;;;28.80;73.20;;;;;;5131757;27;19978;-67
2022/08/21 07:42:51;;;;;;;;;;;29.10;74.20;;;;;;5123594;27;20261;-60
2022/08/21 07:45:20;;;;;;;;;;;28.90;73.30;;;;;;5135485;27;19923;-64
2022/08/21 07:47:46;;;;;;;;;;;29.20;72.30;;;;;;5119347;27;19920;-62
2022/08/21 07:50:12;;;;;;;;;;;29.30;73.40;;;;;;5119044;27;19951;-63
2022/08/21 07:52:38;;;;;;;;;;;29.30;73.60;;;;;;5096419;28;19972;-60
2022/08/21 07:55:04;;;;;;;;;;;29.20;73.50;;;;;;5122635;27;19919;-60
2022/08/21 07:57:29;;;;;;;;;;;29.10;73.00;;;;;;5134903;27;20014;-60
2022/08/21 07:59:55;;;;;;;;;;;29.20;73.10;;;;;;5117506;27;20355;-61
2022/08/21 08:02:22;;;;;;;;;;;29.10;73.10;;;;;;5120559;27;19928;-61
2022/08/21 08:04:47;;;;;;;;;;;29.30;73.20;;;;;;5132589;27;19924;-60
2022/08/21 08:07:13;;;;;;;;;;;29.30;72.50;;;;;;5134828;27;19930;-61
2022/08/21 08:09:39;;;;;;;;;;;29.10;72.70;;;;;;5133360;27;20296;-69
2022/08/21 08:12:04;;;;;;;;;;;29.20;72.50;;;;;;5123642;27;19924;-61
2022/08/21 08:14:31;;;;;;;;;;;29.50;72.60;;;;;;5116569;27;20030;-67
2022/08/21 08:16:56;;;;;;;;;;;29.10;72.10;;;;;;5118292;27;19932;-65
2022/08/21 08:19:22;;;;;;;;;;;29.60;72.50;;;;;;5123043;27;20022;-62
2022/08/21 08:21:48;;;;;;;;;;;29.50;72.30;;;;;;5133568;27;20254;-62
2022/08/21 08:24:14;;;;;;;;;;;29.10;71.90;;;;;;5121748;27;19969;-62
2022/08/21 08:26:40;;;;;;;;;;;29.00;71.90;;;;;;5116377;27;19924;-62
2022/08/21 08:29:05;;;;;;;;;;;29.10;71.80;;;;;;5122761;28;20019;-60
2022/08/21 08:31:32;;;;;;;;;;;29.00;71.60;;;;;;5132375;27;19924;-61
2022/08/21 08:33:57;;;;;;;;;;;28.90;71.20;;;;;;5124369;27;19930;-61
2022/08/21 08:36:31;;;;;;;;;;;29.20;71.00;;;;;;5131150;27;19923;-61
2022/08/21 08:38:56;;;;;;;;;;;29.10;71.30;;;;;;5115060;27;20407;-61
2022/08/21 08:41:23;;;;;;;;;;;28.90;70.90;;;;;;5131766;27;19923;-61
2022/08/21 08:43:55;;;;;;;;;;;28.90;71.10;;;;;;5117092;27;19930;-65
2022/08/21 08:46:25;;;;;;;;;;;29.00;70.30;;;;;;5115990;27;19978;-66
2022/08/21 08:48:53;;;;;;;;;;;29.00;71.50;;;;;;5111468;27;19955;-66
2022/08/21 08:51:32;;;;;;;;;;;28.80;71.40;;;;;;5141027;27;20400;-63
2022/08/21 08:54:02;;;;;;;;;;;29.10;71.40;;;;;;5095701;28;19927;-64
2022/08/21 08:56:32;;;;;;;;;;;28.50;69.60;;;;;;5102673;27;19950;-62
2022/08/21 08:59:08;;;;;;;;;;;28.90;69.90;;;;;;5115004;28;19923;-62
2022/08/21 09:01:34;;;;;;;;;;;29.00;71.30;;;;;;5114654;27;19923;-63
2022/08/21 09:03:59;;;;;;;;;;;28.60;71.10;;;;;;5115968;27;19923;-62
2022/08/21 09:06:33;;;;;;;;;;;28.80;70.90;;;;;;5112932;28;20006;-64
2022/08/21 09:09:18;;;;;;;;;;;28.70;70.00;;;;;;5100644;27;20347;-63
2022/08/21 09:11:47;;;;;;;;;;;28.60;70.00;;;;;;5094769;28;20006;-61
2022/08/21 09:14:16;;;;;;;;;;;28.80;70.10;;;;;;5133205;28;19942;-61
2022/08/21 09:16:45;;;;;;;;;;;28.80;70.00;;;;;;5133138;28;19930;-61
2022/08/21 09:19:23;;;;;;;;;;;28.60;70.40;;;;;;5126348;27;19919;-61
2022/08/21 09:21:49;;;;;;;;;;;28.70;69.50;;;;;;5112828;27;19947;-73
2022/08/21 09:24:32;;;;;;;;;;;28.90;71.00;;;;;;5118600;27;19930;-61
2022/08/21 09:27:07;;;;;;;;;;;28.70;69.80;;;;;;5136616;27;19923;-68
2022/08/21 09:29:35;;;;;;;;;;;28.80;69.80;;;;;;5124640;27;19970;-61
2022/08/21 09:32:01;;;;;;;;;;;28.90;71.50;;;;;;5117080;28;19924;-66
2022/08/21 09:34:28;;;;;;;;;;;28.70;70.10;;;;;;5103024;27;19921;-61
2022/08/21 09:36:54;;;;;;;;;;;28.90;70.40;;;;;;5061472;28;19931;-62
2022/08/21 09:39:24;;;;;;;;;;;28.90;70.70;;;;;;5064207;28;19925;-62
2022/08/21 09:42:00;;;;;;;;;;;28.60;69.40;;;;;;5055847;28;20383;-61
2022/08/21 09:44:29;;;;;;;;;;;28.50;69.70;;;;;;5056131;28;19929;-62
2022/08/21 09:46:55;;;;;;;;;;;28.70;71.40;;;;;;5056151;28;20294;-61
2022/08/21 09:49:31;;;;;;;;;;;28.60;71.30;;;;;;5056536;28;19932;-62
2022/08/21 09:51:58;;;;;;;;;;;28.70;70.00;;;;;;5056461;28;20349;-61
2022/08/21 09:54:26;;;;;;;;;;;28.50;71.10;;;;;;5067356;28;19929;-61
2022/08/21 09:59:39;;;;;;;;;;;28.80;69.90;;;;;;5062942;28;19936;-61
2022/08/21 10:02:24;;;;;;;;;;;28.80;70.80;;;;;;5054243;28;19925;-61
2022/08/21 10:04:50;;;;;;;;;;;28.60;69.60;;;;;;5074933;28;20317;-61
2022/08/21 10:07:18;;;;;;;;;;;28.80;71.20;;;;;;5075155;28;19931;-61
2022/08/21 10:09:44;;;;;;;;;;;28.90;70.90;;;;;;5084961;28;19933;-61
2022/08/21 10:12:19;;;;;;;;;;;28.80;71.10;;;;;;5056127;28;20337;-64
2022/08/21 10:14:57;;;;;;;;;;;28.70;69.80;;;;;;5054435;28;20298;-61
2022/08/21 10:17:28;;;;;;;;;;;29.00;69.80;;;;;;5037653;28;19924;-61
2022/08/21 10:20:06;;;;;;;;;;;28.60;71.20;;;;;;5055204;28;19970;-62
2022/08/21 10:22:58;;;;;;;;;;;28.70;69.50;;;;;;5055476;28;19965;-63
2022/08/21 10:25:31;;;;;;;;;;;28.60;69.00;;;;;;5053292;28;19924;-61
2022/08/21 10:28:20;;;;;;;;;;;28.70;69.10;;;;;;5054735;28;20298;-61
2022/08/21 10:30:56;;;;;;;;;;;28.80;69.30;;;;;;5061294;28;19925;-61
2022/08/21 10:33:27;;;;;;;;;;;28.60;69.30;;;;;;5054478;28;19929;-60
2022/08/21 10:35:59;;;;;;;;;;;28.40;69.10;;;;;;5070944;28;19929;-61
2022/08/21 10:38:28;;;;;;;;;;;28.70;69.40;;;;;;5054949;28;20477;-61
2022/08/21 10:40:57;;;;;;;;;;;28.60;69.60;;;;;;5054691;28;19925;-61
2022/08/21 10:43:25;;;;;;;;;;;28.60;71.10;;;;;;5071052;28;19924;-60
2022/08/21 10:46:03;;;;;;;;;;;28.60;69.80;;;;;;5059989;28;19929;-61
2022/08/21 10:48:31;;;;;;;;;;;28.60;71.00;;;;;;5054691;28;19925;-63
2022/08/21 10:51:05;;;;;;;;;;;28.50;71.00;;;;;;5053716;28;19932;-62
2022/08/21 10:53:33;;;;;;;;;;;28.70;71.10;;;;;;5081864;28;19925;-61
2022/08/21 10:56:01;;;;;;;;;;;28.70;69.90;;;;;;5075067;28;19924;-61
2022/08/21 10:58:31;;;;;;;;;;;28.60;70.30;;;;;;5090546;28;19947;-61
2022/08/21 11:00:58;;;;;;;;;;;28.80;70.20;;;;;;5074362;28;19943;-73
2022/08/21 11:03:35;;;;;;;;;;;28.80;71.00;;;;;;5056070;28;19925;-61
2022/08/21 11:06:09;;;;;;;;;;;28.50;69.40;;;;;;5054937;28;19947;-61
2022/08/21 11:08:39;;;;;;;;;;;28.60;69.70;;;;;;5070662;28;19925;-66
2022/08/21 11:11:11;;;;;;;;;;;28.60;69.70;;;;;;5055008;28;20444;-61
2022/08/21 11:13:39;;;;;;;;;;;28.60;69.80;;;;;;5055565;28;19925;-61
2022/08/21 11:16:04;;;;;;;;;;;28.70;71.70;;;;;;5049298;28;19928;-61
2022/08/21 11:18:49;;;;;;;;;;;28.40;70.60;;;;;;5058201;28;20007;-60
2022/08/21 11:21:20;;;;;;;;;;;28.60;69.60;;;;;;5073904;28;20045;-61
2022/08/21 11:23:50;;;;;;;;;;;28.90;71.10;;;;;;5072027;28;19925;-61
2022/08/21 11:26:24;;;;;;;;;;;28.60;69.00;;;;;;5055987;28;19925;-61
2022/08/21 11:29:04;;;;;;;;;;;28.30;69.70;;;;;;5052976;28;19925;-60
2022/08/21 11:31:36;;;;;;;;;;;28.70;69.40;;;;;;5053767;28;19924;-61
2022/08/21 11:34:08;;;;;;;;;;;28.20;70.60;;;;;;5054193;28;19933;-61
2022/08/21 11:36:50;;;;;;;;;;;28.40;69.30;;;;;;5068734;28;19924;-61
2022/08/21 11:39:16;;;;;;;;;;;28.40;69.10;;;;;;5041220;28;19947;-64
2022/08/21 11:42:02;;;;;;;;;;;28.40;70.50;;;;;;5066239;28;19925;-60
2022/08/21 11:44:49;;;;;;;;;;;28.40;70.80;;;;;;5059256;28;20026;-62
2022/08/21 11:47:17;;;;;;;;;;;28.50;69.40;;;;;;5082840;28;20022;-61
2022/08/21 11:49:53;;;;;;;;;;;28.50;69.40;;;;;;5054055;28;19920;-60
2022/08/21 11:52:22;;;;;;;;;;;28.10;69.10;;;;;;5055807;28;19975;-61
2022/08/21 11:55:00;;;;;;;;;;;28.10;69.20;;;;;;5054048;28;20333;-60
2022/08/21 11:57:27;;;;;;;;;;;28.40;69.50;;;;;;5053463;28;19925;-60
2022/08/21 12:00:03;;;;;;;;;;;28.30;70.60;;;;;;5069956;28;19966;-61
2022/08/21 12:02:29;;;;;;;;;;;28.40;69.40;;;;;;5035433;28;20297;-61
2022/08/21 12:05:02;;;;;;;;;;;28.20;70.70;;;;;;5068535;28;20446;-60
2022/08/21 12:07:29;;;;;;;;;;;28.50;69.60;;;;;;5057410;28;19978;-61
2022/08/21 12:09:56;;;;;;;;;;;28.10;70.80;;;;;;5076769;28;19931;-61
2022/08/21 12:12:40;;;;;;;;;;;28.00;70.80;;;;;;5073446;28;19929;-61
2022/08/21 12:15:06;;;;;;;;;;;28.20;69.60;;;;;;5069276;28;19928;-63
2022/08/21 12:17:38;;;;;;;;;;;28.30;71.30;;;;;;5035046;28;19935;-60
2022/08/21 12:20:27;;;;;;;;;;;28.10;69.60;;;;;;5054170;28;19993;-61
2022/08/21 12:23:03;;;;;;;;;;;28.00;69.50;;;;;;5030757;28;19925;-61
2022/08/21 12:25:35;;;;;;;;;;;28.30;71.10;;;;;;5030475;28;20088;-60
2022/08/21 12:28:02;;;;;;;;;;;28.20;71.00;;;;;;5031003;28;19976;-61
2022/08/21 12:30:28;;;;;;;;;;;27.90;70.80;;;;;;5028872;28;19925;-61
2022/08/21 12:32:58;;;;;;;;;;;28.20;70.90;;;;;;5030804;28;20418;-60
2022/08/21 12:35:36;;;;;;;;;;;27.90;70.80;;;;;;5013290;28;19921;-61
2022/08/21 12:38:04;;;;;;;;;;;28.20;69.60;;;;;;5014546;28;19936;-61
2022/08/21 12:40:40;;;;;;;;;;;28.00;69.60;;;;;;5029284;28;19929;-60
2022/08/21 12:43:05;;;;;;;;;;;28.00;69.70;;;;;;5030624;28;19932;-61
2022/08/21 12:45:37;;;;;;;;;;;28.20;70.70;;;;;;5030331;28;20383;-60
2022/08/21 12:48:26;;;;;;;;;;;28.10;71.20;;;;;;5030979;28;19926;-60
2022/08/21 12:51:00;;;;;;;;;;;28.00;69.90;;;;;;4990879;28;19930;-61
2022/08/21 12:53:28;;;;;;;;;;;28.00;70.00;;;;;;4991227;28;20029;-60
2022/08/21 12:55:59;;;;;;;;;;;28.00;71.60;;;;;;4991490;28;19926;-60
2022/08/21 12:58:25;;;;;;;;;;;27.80;71.40;;;;;;4995472;28;19925;-60
2022/08/21 13:00:51;;;;;;;;;;;27.90;71.10;;;;;;4995477;28;20368;-61
2022/08/21 13:03:17;;;;;;;;;;;28.30;71.80;;;;;;5012812;28;19926;-61
2022/08/21 13:05:43;;;;;;;;;;;28.00;70.60;;;;;;4993081;28;19933;-61
2022/08/21 13:08:09;;;;;;;;;;;28.00;71.20;;;;;;4986376;28;19925;-61
2022/08/21 13:10:35;;;;;;;;;;;27.90;71.30;;;;;;4998557;28;20375;-60
2022/08/21 13:13:02;;;;;;;;;;;27.80;71.00;;;;;;5013471;28;19935;-61
2022/08/21 13:15:29;;;;;;;;;;;27.90;71.20;;;;;;5014907;28;19948;-60
2022/08/21 13:17:58;;;;;;;;;;;28.00;71.30;;;;;;5028805;28;20003;-61
2022/08/21 13:20:24;;;;;;;;;;;28.40;71.30;;;;;;5014739;28;20294;-61
2022/08/21 13:22:50;;;;;;;;;;;28.10;71.30;;;;;;5012938;28;19926;-61
2022/08/21 13:25:17;;;;;;;;;;;28.20;71.20;;;;;;5014008;28;20450;-61
2022/08/21 13:27:43;;;;;;;;;;;28.00;71.50;;;;;;5033129;28;19931;-61
2022/08/21 13:30:11;;;;;;;;;;;28.10;71.60;;;;;;5064957;28;19925;-60
2022/08/21 13:32:40;;;;;;;;;;;28.00;71.50;;;;;;5055479;28;20016;-61
2022/08/21 13:35:14;;;;;;;;;;;28.40;71.90;;;;;;5065415;28;20347;-60
2022/08/21 13:37:41;;;;;;;;;;;28.20;70.30;;;;;;5057270;28;19928;-60
2022/08/21 13:40:08;;;;;;;;;;;28.00;71.00;;;;;;5059502;28;19978;-61
2022/08/21 13:42:33;;;;;;;;;;;28.10;70.90;;;;;;5054829;28;19924;-61
2022/08/21 13:44:59;;;;;;;;;;;28.10;71.20;;;;;;5056220;28;20401;-60
2022/08/21 13:47:25;;;;;;;;;;;27.70;71.00;;;;;;5056145;28;19924;-61
2022/08/21 13:49:52;;;;;;;;;;;28.00;71.40;;;;;;5059244;28;19964;-60
2022/08/21 13:52:27;;;;;;;;;;;28.00;71.50;;;;;;5065497;28;19925;-60
2022/08/21 13:54:52;;;;;;;;;;;27.90;71.50;;;;;;5071219;28;19976;-61
2022/08/21 13:57:19;;;;;;;;;;;27.90;71.30;;;;;;5055731;28;19972;-60
2022/08/21 13:59:44;;;;;;;;;;;28.10;71.70;;;;;;5063776;28;19925;-60
2022/08/21 14:02:14;;;;;;;;;;;28.10;71.50;;;;;;5055613;28;20272;-60
2022/08/21 14:04:55;;;;;;;;;;;28.10;70.50;;;;;;5061839;28;20394;-61
2022/08/21 14:07:26;;;;;;;;;;;28.10;70.60;;;;;;5054735;28;19929;-61
2022/08/21 14:09:52;;;;;;;;;;;28.10;70.90;;;;;;5064992;28;19932;-59
2022/08/21 14:12:32;;;;;;;;;;;28.10;72.10;;;;;;5075105;28;19925;-60
2022/08/21 14:14:58;;;;;;;;;;;28.30;71.50;;;;;;5070262;28;19975;-72
2022/08/21 14:17:44;;;;;;;;;;;28.00;72.90;;;;;;5066044;28;19960;-60
2022/08/21 14:20:10;;;;;;;;;;;28.30;71.90;;;;;;5074063;28;20382;-61
2022/08/21 14:22:39;;;;;;;;;;;28.00;73.20;;;;;;5091207;28;19924;-60
2022/08/21 14:25:06;;;;;;;;;;;28.00;71.80;;;;;;5074889;28;19924;-60